createdAt,value
2019-04-29T00:00:09.157Z,3.80
2019-04-29T00:02:39.856Z,3.80
2019-04-29T00:05:11.035Z,3.80
2019-04-29T00:07:41.782Z,3.70
2019-04-29T00:10:16.472Z,3.80
2019-04-29T00:12:47.213Z,3.70
2019-04-29T00:15:35.783Z,3.70
2019-04-29T00:18:11.682Z,3.70
2019-04-29T00:20:46.178Z,3.70
2019-04-29T00:23:16.944Z,3.70
2019-04-29T00:25:47.801Z,3.80
2019-04-29T00:28:18.537Z,3.90
2019-04-29T00:30:49.314Z,3.90
2019-04-29T00:33:20.090Z,3.80
2019-04-29T00:35:50.853Z,3.70
2019-04-29T00:38:45.821Z,3.70
2019-04-29T00:41:34.359Z,3.70
2019-04-29T00:44:08.077Z,3.70
2019-04-29T00:46:38.822Z,3.60
2019-04-29T00:49:09.619Z,3.60
2019-04-29T00:51:40.357Z,3.60
2019-04-29T00:54:20.800Z,3.60
2019-04-29T00:56:51.522Z,3.60
2019-04-29T00:59:22.306Z,3.60
2019-04-29T01:01:53.286Z,3.60
2019-04-29T01:04:24.069Z,3.60
2019-04-29T01:06:54.795Z,3.60
2019-04-29T01:09:27.092Z,3.60
2019-04-29T01:11:57.827Z,3.50
2019-04-29T01:14:28.544Z,3.60
2019-04-29T01:16:59.331Z,3.60
2019-04-29T01:19:30.087Z,3.60
2019-04-29T01:22:00.864Z,3.60
2019-04-29T01:24:31.620Z,3.60
2019-04-29T01:27:21.312Z,3.60
2019-04-29T01:29:52.067Z,3.60
2019-04-29T01:32:22.953Z,3.50
2019-04-29T01:34:55.220Z,3.60
2019-04-29T01:37:38.178Z,3.50
2019-04-29T01:40:37.212Z,3.60
2019-04-29T01:43:07.979Z,3.60
2019-04-29T01:45:38.755Z,3.70
2019-04-29T01:48:09.531Z,3.70
2019-04-29T01:50:40.307Z,3.60
2019-04-29T01:53:11.098Z,3.50
2019-04-29T01:55:41.910Z,3.50
2019-04-29T01:58:12.656Z,3.50
2019-04-29T02:00:43.444Z,3.50
2019-04-29T02:03:14.219Z,3.50
2019-04-29T02:05:44.995Z,3.50
2019-04-29T02:08:15.752Z,3.50
2019-04-29T02:10:46.538Z,3.40
2019-04-29T02:13:17.297Z,3.40
2019-04-29T02:15:48.053Z,3.40
2019-04-29T02:18:18.793Z,3.30
2019-04-29T02:20:49.633Z,3.30
2019-04-29T02:23:35.033Z,3.30
2019-04-29T02:26:06.220Z,3.30
2019-04-29T02:28:36.966Z,3.20
2019-04-29T02:31:25.514Z,3.20
2019-04-29T02:33:56.244Z,3.20
2019-04-29T02:36:29.970Z,3.20
2019-04-29T02:39:08.451Z,3.20
2019-04-29T02:42:01.671Z,3.20
2019-04-29T02:44:32.421Z,3.10
2019-04-29T02:47:03.215Z,3.10
2019-04-29T02:49:33.991Z,3.10
2019-04-29T02:52:04.789Z,3.10
2019-04-29T02:54:35.531Z,3.10
2019-04-29T02:57:25.263Z,3.10
2019-04-29T03:00:00.650Z,3.10
2019-04-29T03:02:46.410Z,3.10
2019-04-29T03:05:28.519Z,3.10
2019-04-29T03:07:59.313Z,3.10
2019-04-29T03:10:30.071Z,3.10
2019-04-29T03:13:00.829Z,3.10
2019-04-29T03:15:34.184Z,3.00
2019-04-29T03:18:04.962Z,3.00
2019-04-29T03:20:56.584Z,3.00
2019-04-29T03:23:27.158Z,3.00
2019-04-29T03:25:57.935Z,3.00
2019-04-29T03:28:28.712Z,3.00
2019-04-29T03:30:59.479Z,3.00
2019-04-29T03:33:30.432Z,3.00
2019-04-29T03:36:01.422Z,2.90
2019-04-29T03:38:32.188Z,2.90
2019-04-29T03:41:02.913Z,2.90
2019-04-29T03:43:33.670Z,2.90
2019-04-29T03:46:04.567Z,2.90
2019-04-29T03:48:35.326Z,2.90
2019-04-29T03:51:06.130Z,2.90
2019-04-29T03:53:36.928Z,2.90
2019-04-29T03:56:07.691Z,2.90
2019-04-29T03:58:38.498Z,3.00
2019-04-29T04:01:20.910Z,3.00
2019-04-29T04:03:58.834Z,3.10
2019-04-29T04:06:46.529Z,3.10
2019-04-29T04:09:22.633Z,3.10
2019-04-29T04:11:53.396Z,3.10
2019-04-29T04:14:24.226Z,3.10
2019-04-29T04:17:14.145Z,3.10
2019-04-29T04:19:45.233Z,3.20
2019-04-29T04:22:16.040Z,3.20
2019-04-29T04:24:46.825Z,3.20
2019-04-29T04:27:17.644Z,3.30
2019-04-29T04:29:48.507Z,3.40
2019-04-29T04:32:19.258Z,3.40
2019-04-29T04:34:50.077Z,3.30
2019-04-29T04:37:20.861Z,3.30
2019-04-29T04:39:51.675Z,3.30
2019-04-29T04:42:22.428Z,3.30
2019-04-29T04:44:53.226Z,3.40
2019-04-29T04:47:24.032Z,3.50
2019-04-29T04:49:54.828Z,3.40
2019-04-29T04:52:25.574Z,3.50
2019-04-29T04:54:56.350Z,3.50
2019-04-29T04:57:27.097Z,3.50
2019-04-29T04:59:57.873Z,3.50
2019-04-29T05:02:28.669Z,3.60
2019-04-29T05:04:59.435Z,3.70
2019-04-29T05:07:30.201Z,3.70
2019-04-29T05:10:00.999Z,3.60
2019-04-29T05:12:31.743Z,3.70
2019-04-29T05:15:02.555Z,3.70
2019-04-29T05:17:33.387Z,3.70
2019-04-29T05:20:04.413Z,3.70
2019-04-29T05:22:35.179Z,3.80
2019-04-29T05:25:06.188Z,3.90
2019-04-29T05:27:36.872Z,4.00
2019-04-29T05:30:07.909Z,4.10
2019-04-29T05:32:38.759Z,4.20
2019-04-29T05:35:12.611Z,4.50
2019-04-29T05:37:56.856Z,4.80
2019-04-29T05:40:37.842Z,5.30
2019-04-29T05:43:10.497Z,6.00
2019-04-29T05:45:48.385Z,6.60
2019-04-29T05:48:19.422Z,7.00
2019-04-29T05:51:02.181Z,7.10
2019-04-29T05:53:42.809Z,7.20
2019-04-29T05:56:13.576Z,7.60
2019-04-29T05:58:44.332Z,7.70
2019-04-29T06:01:19.729Z,7.70
2019-04-29T06:03:50.469Z,7.50
2019-04-29T06:06:21.343Z,7.40
2019-04-29T06:08:52.098Z,7.20
2019-04-29T06:11:23.406Z,6.90
2019-04-29T06:13:54.370Z,6.60
2019-04-29T06:16:25.117Z,6.40
2019-04-29T06:19:00.218Z,6.40
2019-04-29T06:21:28.370Z,6.30
2019-04-29T06:24:03.707Z,6.20
2019-04-29T06:26:31.584Z,6.30
2019-04-29T06:29:05.546Z,6.30
2019-04-29T06:31:34.695Z,6.60
2019-04-29T06:34:06.538Z,6.80
2019-04-29T06:36:37.510Z,7.00
2019-04-29T06:39:08.386Z,7.00
2019-04-29T06:41:40.485Z,7.10
2019-04-29T06:44:16.079Z,7.00
2019-04-29T06:46:44.016Z,7.00
2019-04-29T06:49:14.772Z,7.20
2019-04-29T06:51:45.528Z,7.40
2019-04-29T06:54:16.355Z,7.60
2019-04-29T06:56:47.150Z,7.70
2019-04-29T06:59:17.877Z,7.60
2019-04-29T07:01:48.763Z,7.80
2019-04-29T07:04:19.529Z,8.10
2019-04-29T07:06:57.278Z,8.30
2019-04-29T07:09:22.702Z,8.50
2019-04-29T07:11:53.478Z,8.50
2019-04-29T07:14:24.244Z,8.60
2019-04-29T07:17:00.696Z,8.80
2019-04-29T07:19:29.008Z,9.10
2019-04-29T07:21:59.774Z,9.30
2019-04-29T07:24:30.497Z,9.30
2019-04-29T07:27:02.692Z,9.20
2019-04-29T07:29:33.633Z,9.40
2019-04-29T07:32:04.731Z,9.60
2019-04-29T07:34:39.570Z,9.60
2019-04-29T07:37:09.403Z,9.60
2019-04-29T07:39:40.061Z,9.70
2019-04-29T07:42:10.810Z,9.80
2019-04-29T07:45:03.558Z,9.90
2019-04-29T07:47:35.075Z,9.90
2019-04-29T07:50:06.360Z,10.00
2019-04-29T07:52:37.149Z,10.10
2019-04-29T07:55:08.309Z,10.30
2019-04-29T07:57:39.082Z,10.30
2019-04-29T08:00:12.869Z,10.30
2019-04-29T08:02:42.883Z,10.40
2019-04-29T08:05:13.799Z,10.60
2019-04-29T08:07:44.835Z,10.50
2019-04-29T08:10:23.351Z,10.50
2019-04-29T08:12:49.279Z,10.50
2019-04-29T08:15:20.155Z,10.60
2019-04-29T08:17:52.680Z,10.50
2019-04-29T08:20:23.348Z,10.50
2019-04-29T08:22:54.104Z,10.50
2019-04-29T08:25:25.994Z,10.60
2019-04-29T08:27:57.418Z,10.90
2019-04-29T08:30:28.245Z,11.20
2019-04-29T08:33:00.913Z,11.50
2019-04-29T08:35:32.698Z,11.90
2019-04-29T08:38:04.193Z,12.00
2019-04-29T08:40:34.932Z,11.90
2019-04-29T08:43:23.633Z,12.00
2019-04-29T08:46:01.378Z,12.20
2019-04-29T08:48:32.100Z,12.30
2019-04-29T08:51:02.832Z,12.40
2019-04-29T08:53:34.047Z,12.60
2019-04-29T08:56:05.620Z,12.40
2019-04-29T08:58:56.236Z,12.30
2019-04-29T09:01:29.287Z,12.20
2019-04-29T09:03:59.479Z,12.30
2019-04-29T09:06:32.556Z,12.60
2019-04-29T09:09:04.932Z,12.60
2019-04-29T09:11:35.237Z,12.50
2019-04-29T09:14:06.011Z,12.40
2019-04-29T09:16:36.790Z,12.30
2019-04-29T09:19:07.516Z,12.30
2019-04-29T09:21:39.763Z,12.30
2019-04-29T09:24:10.520Z,12.40
2019-04-29T09:26:48.837Z,12.50
2019-04-29T09:29:35.492Z,12.50
2019-04-29T09:32:07.111Z,12.70
2019-04-29T09:34:37.930Z,12.80
2019-04-29T09:37:08.710Z,12.70
2019-04-29T09:39:43.679Z,12.60
2019-04-29T09:42:45.543Z,12.40
2019-04-29T09:45:27.567Z,12.50
2019-04-29T09:47:58.314Z,12.80
2019-04-29T09:50:29.110Z,13.20
2019-04-29T09:52:59.897Z,13.20
2019-04-29T09:55:30.702Z,13.20
2019-04-29T09:58:01.443Z,13.20
2019-04-29T10:00:42.508Z,13.00
2019-04-29T10:03:47.427Z,12.90
2019-04-29T10:06:21.640Z,13.10
2019-04-29T10:08:52.453Z,13.20
2019-04-29T10:11:23.226Z,13.30
2019-04-29T10:13:53.968Z,13.40
2019-04-29T10:16:42.518Z,13.50
2019-04-29T10:19:23.837Z,13.50
2019-04-29T10:21:54.583Z,13.40
2019-04-29T10:24:25.319Z,13.80
2019-04-29T10:26:56.196Z,14.00
2019-04-29T10:29:28.782Z,14.00
2019-04-29T10:32:02.435Z,13.80
2019-04-29T10:34:33.078Z,13.60
2019-04-29T10:37:04.085Z,13.50
2019-04-29T10:40:10.628Z,13.60
2019-04-29T10:42:38.740Z,13.60
2019-04-29T10:45:19.061Z,13.70
2019-04-29T10:48:21.206Z,13.90
2019-04-29T10:50:54.048Z,14.00
2019-04-29T10:53:24.838Z,14.00
2019-04-29T10:55:55.694Z,13.80
2019-04-29T10:58:31.211Z,13.80
2019-04-29T11:02:09.345Z,13.60
2019-04-29T11:04:38.116Z,13.60
2019-04-29T11:07:37.193Z,13.60
2019-04-29T11:10:31.475Z,13.60
2019-04-29T11:13:02.310Z,13.50
2019-04-29T11:15:35.890Z,13.50
2019-04-29T11:18:07.255Z,13.50
2019-04-29T11:20:38.002Z,13.60
2019-04-29T11:23:26.481Z,13.60
2019-04-29T11:26:05.114Z,13.70
2019-04-29T11:28:37.766Z,13.70
2019-04-29T11:31:09.740Z,13.70
2019-04-29T11:33:50.851Z,13.50
2019-04-29T11:36:23.774Z,13.30
2019-04-29T11:38:54.625Z,13.30
2019-04-29T11:41:28.012Z,13.30
2019-04-29T11:43:58.868Z,13.50
2019-04-29T11:46:30.605Z,13.60
2019-04-29T11:49:02.971Z,13.60
2019-04-29T11:51:49.410Z,13.40
2019-04-29T11:54:12.382Z,13.40
2019-04-29T11:56:42.151Z,13.50
2019-04-29T11:59:24.579Z,13.60
2019-04-29T12:02:13.522Z,14.00
2019-04-29T12:04:53.890Z,14.60
2019-04-29T12:07:32.104Z,15.30
2019-04-29T12:09:57.073Z,15.90
2019-04-29T12:12:27.842Z,15.80
2019-04-29T12:15:20.324Z,15.80
2019-04-29T12:18:10.023Z,16.20
2019-04-29T12:20:58.664Z,16.40
2019-04-29T12:23:29.510Z,16.20
2019-04-29T12:26:03.085Z,16.20
2019-04-29T12:28:32.661Z,16.00
2019-04-29T12:31:10.253Z,16.10
2019-04-29T12:33:50.249Z,16.30
2019-04-29T12:36:21.371Z,16.30
2019-04-29T12:39:42.781Z,16.00
2019-04-29T12:42:35.770Z,15.20
2019-04-29T12:45:23.806Z,14.40
2019-04-29T12:47:54.526Z,13.70
2019-04-29T12:50:25.399Z,13.60
2019-04-29T12:52:56.155Z,13.80
2019-04-29T12:55:47.129Z,14.10
2019-04-29T12:58:06.530Z,14.30
2019-04-29T13:00:47.475Z,14.30
2019-04-29T13:03:39.940Z,14.40
2019-04-29T13:06:23.929Z,14.30
2019-04-29T13:08:57.047Z,14.40
2019-04-29T13:11:37.617Z,14.10
2019-04-29T13:14:01.786Z,13.80
2019-04-29T13:17:13.645Z,13.50
2019-04-29T13:19:41.840Z,13.20
2019-04-29T13:22:15.497Z,13.20
2019-04-29T13:24:45.020Z,13.50
2019-04-29T13:27:16.623Z,13.80
2019-04-29T13:29:48.260Z,14.10
2019-04-29T13:32:18.987Z,14.00
2019-04-29T13:34:51.062Z,13.90
2019-04-29T13:37:21.978Z,13.80
2019-04-29T13:39:55.605Z,13.50
2019-04-29T13:42:26.004Z,13.30
2019-04-29T13:45:07.769Z,13.10
2019-04-29T13:47:50.230Z,13.00
2019-04-29T13:50:43.320Z,12.90
2019-04-29T13:53:16.737Z,13.00
2019-04-29T13:55:49.429Z,13.20
2019-04-29T13:58:22.286Z,13.20
2019-04-29T14:01:02.202Z,13.10
2019-04-29T14:03:42.031Z,13.10
2019-04-29T14:06:14.444Z,13.00
2019-04-29T14:08:45.297Z,12.90
2019-04-29T14:11:16.115Z,12.80
2019-04-29T14:13:48.467Z,12.80
2019-04-29T14:16:19.498Z,13.00
2019-04-29T14:18:50.515Z,13.10
2019-04-29T14:21:21.343Z,13.20
2019-04-29T14:23:52.311Z,13.20
2019-04-29T14:26:23.069Z,13.20
2019-04-29T14:28:53.787Z,13.20
2019-04-29T14:31:24.639Z,13.30
2019-04-29T14:34:01.401Z,13.30
2019-04-29T14:36:32.266Z,13.50
2019-04-29T14:39:03.052Z,13.40
2019-04-29T14:41:35.357Z,13.40
2019-04-29T14:44:26.436Z,13.30
2019-04-29T14:47:16.371Z,13.30
2019-04-29T14:49:50.886Z,13.60
2019-04-29T14:52:21.693Z,13.90
2019-04-29T14:54:52.442Z,14.10
2019-04-29T14:57:23.255Z,14.20
2019-04-29T14:59:54.192Z,14.00
2019-04-29T15:02:26.561Z,13.60
2019-04-29T15:04:57.406Z,13.40
2019-04-29T15:07:36.034Z,13.30
2019-04-29T15:10:08.349Z,13.30
2019-04-29T15:13:06.732Z,13.30
2019-04-29T15:16:09.542Z,13.20
2019-04-29T15:18:51.515Z,12.80
2019-04-29T15:21:43.008Z,12.50
2019-04-29T15:24:08.986Z,12.50
2019-04-29T15:26:39.758Z,12.40
2019-04-29T15:29:10.515Z,12.30
2019-04-29T15:31:42.460Z,12.30
2019-04-29T15:34:14.562Z,12.30
2019-04-29T15:36:45.735Z,12.20
2019-04-29T15:39:16.772Z,12.20
2019-04-29T15:41:47.791Z,12.10
2019-04-29T15:44:20.700Z,12.10
2019-04-29T15:46:51.042Z,12.00
2019-04-29T15:49:24.680Z,11.90
2019-04-29T15:51:54.283Z,11.90
2019-04-29T15:54:26.151Z,11.80
2019-04-29T15:56:57.023Z,11.90
2019-04-29T15:59:27.842Z,11.90
2019-04-29T16:01:58.976Z,11.80
2019-04-29T16:04:35.727Z,11.80
2019-04-29T16:07:37.880Z,11.60
2019-04-29T16:10:26.671Z,11.50
2019-04-29T16:13:00.859Z,11.40
2019-04-29T16:15:31.694Z,11.30
2019-04-29T16:18:05.299Z,11.20
2019-04-29T16:20:34.941Z,11.10
2019-04-29T16:23:05.795Z,11.00
2019-04-29T16:25:40.643Z,10.90
2019-04-29T16:28:08.977Z,10.80
2019-04-29T16:30:39.738Z,10.70
2019-04-29T16:33:14.107Z,10.60
2019-04-29T16:35:42.973Z,10.50
2019-04-29T16:38:14.314Z,10.50
2019-04-29T16:40:48.659Z,10.50
2019-04-29T16:43:44.682Z,10.40
2019-04-29T16:46:23.428Z,10.30
2019-04-29T16:48:52.126Z,10.30
2019-04-29T16:51:22.923Z,10.20
2019-04-29T16:53:53.670Z,10.20
2019-04-29T16:56:24.445Z,10.30
2019-04-29T16:58:55.303Z,10.20
2019-04-29T17:01:26.031Z,10.20
2019-04-29T17:04:04.742Z,10.10
2019-04-29T17:06:29.233Z,10.10
2019-04-29T17:09:23.198Z,10.00
2019-04-29T17:11:56.146Z,10.00
2019-04-29T17:14:27.708Z,10.00
2019-04-29T17:16:58.383Z,9.90
2019-04-29T17:19:29.242Z,9.90
2019-04-29T17:22:24.189Z,9.80
2019-04-29T17:24:32.431Z,9.70
2019-04-29T17:27:14.741Z,9.70
2019-04-29T17:32:49.443Z,9.70
2019-04-29T17:35:17.510Z,9.70
2019-04-29T17:35:22.448Z,9.70
2019-04-29T17:37:53.724Z,9.70
2019-04-29T17:40:24.900Z,9.70
2019-04-29T17:43:05.126Z,9.70
2019-04-29T17:45:43.908Z,9.60
2019-04-29T17:48:31.191Z,9.60
2019-04-29T17:51:05.298Z,9.60
2019-04-29T17:53:40.432Z,9.50
2019-04-29T17:56:18.860Z,9.50
2019-04-29T17:58:56.441Z,9.40
2019-04-29T18:01:44.695Z,9.40
2019-04-29T18:04:29.608Z,9.40
2019-04-29T18:07:19.360Z,9.40
2019-04-29T18:10:01.103Z,9.40
2019-04-29T18:12:37.661Z,9.30
2019-04-29T18:15:06.004Z,9.40
2019-04-29T18:17:37.248Z,9.30
2019-04-29T18:20:33.041Z,9.30
2019-04-29T18:23:19.060Z,9.30
2019-04-29T18:25:54.867Z,9.20
2019-04-29T18:28:26.054Z,9.30
2019-04-29T18:30:57.912Z,9.20
2019-04-29T18:33:30.360Z,9.20
2019-04-29T18:36:04.600Z,9.20
2019-04-29T18:38:35.020Z,9.20
2019-04-29T18:41:05.837Z,9.10
2019-04-29T18:43:36.593Z,9.20
2019-04-29T18:46:12.501Z,9.20
2019-04-29T18:48:40.267Z,9.10
2019-04-29T18:51:11.036Z,9.10
2019-04-29T18:53:41.799Z,9.10
2019-04-29T18:56:12.618Z,9.10
2019-04-29T18:58:46.899Z,9.20
2019-04-29T19:01:16.930Z,9.20
2019-04-29T19:03:58.268Z,9.20
2019-04-29T19:06:29.123Z,9.20
2019-04-29T19:09:01.536Z,9.20
2019-04-29T19:11:32.863Z,9.20
2019-04-29T19:14:05.144Z,9.10
2019-04-29T19:16:39.255Z,9.10
2019-04-29T19:19:08.639Z,9.10
2019-04-29T19:21:39.423Z,9.00
2019-04-29T19:24:10.210Z,8.90
2019-04-29T19:26:41.016Z,8.80
2019-04-29T19:29:11.782Z,8.80
2019-04-29T19:31:48.275Z,8.70
2019-04-29T19:34:18.707Z,8.60
2019-04-29T19:36:50.637Z,8.60
2019-04-29T19:39:21.824Z,8.50
2019-04-29T19:41:52.146Z,8.50
2019-04-29T19:44:26.502Z,8.50
2019-04-29T19:46:57.021Z,8.50
2019-04-29T19:49:27.706Z,8.40
2019-04-29T19:51:58.502Z,8.40
2019-04-29T19:54:29.258Z,8.40
2019-04-29T19:57:03.462Z,8.40
2019-04-29T19:59:32.961Z,8.40
2019-04-29T20:02:06.753Z,8.50
2019-04-29T20:04:59.285Z,8.50
2019-04-29T20:07:29.550Z,8.50
2019-04-29T20:10:05.463Z,8.50
2019-04-29T20:12:33.603Z,8.50
2019-04-29T20:15:07.612Z,8.50
2019-04-29T20:18:11.734Z,8.50
2019-04-29T20:21:09.019Z,8.50
2019-04-29T20:23:39.459Z,8.40
2019-04-29T20:26:15.556Z,8.40
2019-04-29T20:28:42.181Z,8.30
2019-04-29T20:31:18.682Z,8.30
2019-04-29T20:33:47.014Z,8.30
2019-04-29T20:36:33.243Z,8.30
2019-04-29T20:38:50.404Z,8.30
2019-04-29T20:41:37.757Z,8.40
2019-04-29T20:43:55.641Z,8.40
2019-04-29T20:46:34.238Z,8.40
2019-04-29T20:48:59.772Z,8.40
2019-04-29T20:51:47.864Z,8.40
2019-04-29T20:54:13.519Z,8.50
2019-04-29T20:56:41.522Z,8.50
2019-04-29T20:59:12.922Z,8.50
2019-04-29T21:01:47.352Z,8.50
2019-04-29T21:04:31.066Z,8.60
2019-04-29T21:06:59.752Z,8.50
2019-04-29T21:09:27.561Z,8.50
2019-04-29T21:12:08.328Z,8.50
2019-04-29T21:14:43.375Z,8.60
2019-04-29T21:17:28.278Z,8.60
2019-04-29T21:19:46.523Z,8.60
2019-04-29T21:22:22.356Z,8.60
2019-04-29T21:24:53.775Z,8.60
2019-04-29T21:27:23.387Z,8.60
2019-04-29T21:29:55.444Z,8.60
2019-04-29T21:32:26.267Z,8.60
2019-04-29T21:35:05.820Z,8.60
2019-04-29T21:37:54.485Z,8.60
2019-04-29T21:40:35.071Z,8.60
2019-04-29T21:43:13.628Z,8.60
2019-04-29T21:45:44.988Z,8.60
2019-04-29T21:48:14.503Z,8.60
2019-04-29T21:50:45.299Z,8.60
2019-04-29T21:53:16.066Z,8.60
2019-04-29T21:55:46.892Z,8.60
2019-04-29T21:58:17.698Z,8.60
2019-04-29T22:00:48.665Z,8.60
2019-04-29T22:03:19.723Z,8.60
2019-04-29T22:05:53.553Z,8.60
2019-04-29T22:08:27.218Z,8.60
2019-04-29T22:10:58.287Z,8.50
2019-04-29T22:13:30.609Z,8.50
2019-04-29T22:16:01.324Z,8.50
2019-04-29T22:18:32.331Z,8.60
2019-04-29T22:21:06.548Z,8.60
2019-04-29T22:23:35.585Z,8.60
2019-04-29T22:26:06.380Z,8.50
2019-04-29T22:28:37.166Z,8.60
2019-04-29T22:31:07.953Z,8.60
2019-04-29T22:33:38.773Z,8.60
2019-04-29T22:36:10.233Z,8.50
2019-04-29T22:38:43.642Z,8.60
2019-04-29T22:41:20.299Z,8.60
2019-04-29T22:43:56.635Z,8.60
2019-04-29T22:46:27.487Z,8.60
2019-04-29T22:48:58.257Z,8.50
2019-04-29T22:51:29.007Z,8.60
2019-04-29T22:54:01.025Z,8.60
2019-04-29T22:56:31.830Z,8.60
2019-04-29T22:59:02.537Z,8.60
2019-04-29T23:01:35.824Z,8.60
2019-04-29T23:04:09.575Z,8.70
2019-04-29T23:06:39.864Z,8.60
2019-04-29T23:09:12.100Z,8.60
2019-04-29T23:11:42.801Z,8.60
2019-04-29T23:14:15.157Z,8.60
2019-04-29T23:16:47.457Z,8.60
2019-04-29T23:19:19.181Z,8.50
2019-04-29T23:22:15.605Z,8.60
2019-04-29T23:24:55.911Z,8.60
2019-04-29T23:27:26.658Z,8.60
2019-04-29T23:29:57.394Z,8.50
2019-04-29T23:32:28.252Z,8.50
2019-04-29T23:35:01.712Z,8.50
2019-04-29T23:37:31.413Z,8.50
2019-04-29T23:40:02.161Z,8.40
2019-04-29T23:42:32.926Z,8.40
2019-04-29T23:45:05.284Z,8.50
2019-04-29T23:47:36.200Z,8.40
2019-04-29T23:50:07.726Z,8.40
2019-04-29T23:52:38.473Z,8.40
2019-04-29T23:55:09.258Z,8.40
2019-04-29T23:58:02.861Z,8.30
